createdAt,value
2017-11-12T00:00:33.316Z,0
2017-11-12T00:01:34.143Z,0
2017-11-12T00:02:34.871Z,0
2017-11-12T00:03:35.606Z,0
2017-11-12T00:04:36.384Z,0
2017-11-12T00:05:37.182Z,0
2017-11-12T00:06:37.914Z,0
2017-11-12T00:07:38.669Z,0
2017-11-12T00:08:39.399Z,0
2017-11-12T00:09:40.186Z,0
2017-11-12T00:10:40.930Z,0
2017-11-12T00:11:41.686Z,0
2017-11-12T00:12:42.406Z,0
2017-11-12T00:13:43.223Z,0
2017-11-12T00:14:43.949Z,0
2017-11-12T00:15:44.674Z,0
2017-11-12T00:16:45.706Z,0
2017-11-12T00:17:46.397Z,0
2017-11-12T00:18:47.205Z,0
2017-11-12T00:19:47.925Z,0
2017-11-12T00:20:48.640Z,0
2017-11-12T00:21:49.364Z,0
2017-11-12T00:22:50.092Z,0
2017-11-12T00:23:50.810Z,0
2017-11-12T00:24:51.561Z,0
2017-11-12T00:25:52.323Z,0
2017-11-12T00:26:53.116Z,0
2017-11-12T00:27:53.836Z,0
2017-11-12T00:28:54.630Z,0
2017-11-12T00:29:55.351Z,0
2017-11-12T00:30:56.250Z,0
2017-11-12T00:31:56.976Z,0
2017-11-12T00:32:57.733Z,0
2017-11-12T00:33:58.451Z,0
2017-11-12T00:34:59.170Z,0
2017-11-12T00:35:59.953Z,0
2017-11-12T00:37:00.751Z,0
2017-11-12T00:38:01.481Z,0
2017-11-12T00:39:02.201Z,0
2017-11-12T00:40:02.986Z,0
2017-11-12T00:41:03.720Z,0
2017-11-12T00:42:04.441Z,0
2017-11-12T00:43:05.160Z,0
2017-11-12T00:44:05.938Z,0
2017-11-12T00:45:06.731Z,0
2017-11-12T00:46:07.466Z,0
2017-11-12T00:47:08.321Z,0
2017-11-12T00:48:09.058Z,0
2017-11-12T00:49:09.750Z,0
2017-11-12T00:50:10.557Z,0
2017-11-12T00:51:11.337Z,0
2017-11-12T00:52:12.157Z,0
2017-11-12T00:53:12.924Z,0
2017-11-12T00:54:13.647Z,0
2017-11-12T00:55:14.374Z,0
2017-11-12T00:56:15.101Z,0
2017-11-12T00:57:15.834Z,0
2017-11-12T00:58:16.491Z,0
2017-11-12T00:59:17.191Z,0
2017-11-12T01:00:17.903Z,0
2017-11-12T01:01:18.632Z,0
2017-11-12T01:02:19.450Z,0
2017-11-12T01:03:20.172Z,0
2017-11-12T01:04:20.965Z,0
2017-11-12T01:05:21.720Z,0
2017-11-12T01:06:22.441Z,0
2017-11-12T01:07:23.553Z,0
2017-11-12T01:08:24.269Z,0
2017-11-12T01:09:24.999Z,0
2017-11-12T01:10:26.105Z,0
2017-11-12T01:11:26.769Z,0
2017-11-12T01:12:27.619Z,0
2017-11-12T01:13:28.342Z,0
2017-11-12T01:14:29.164Z,0
2017-11-12T01:15:29.911Z,0
2017-11-12T01:16:30.643Z,0
2017-11-12T01:17:31.836Z,0
2017-11-12T01:18:32.501Z,0
2017-11-12T01:19:33.231Z,0
2017-11-12T01:20:34.028Z,0
2017-11-12T01:21:34.754Z,0
2017-11-12T01:22:35.616Z,0
2017-11-12T01:23:36.353Z,0
2017-11-12T01:24:37.140Z,0
2017-11-12T01:25:37.852Z,0
2017-11-12T01:26:38.830Z,0
2017-11-12T01:27:39.580Z,0
2017-11-12T01:28:40.306Z,0
2017-11-12T01:29:41.029Z,0
2017-11-12T01:30:41.754Z,0
2017-11-12T01:31:42.505Z,0
2017-11-12T01:32:43.278Z,0
2017-11-12T01:33:44.003Z,0
2017-11-12T01:34:44.799Z,0
2017-11-12T01:35:45.531Z,0
2017-11-12T01:36:46.328Z,0
2017-11-12T01:37:47.039Z,0
2017-11-12T01:38:47.761Z,0
2017-11-12T01:39:48.483Z,0
2017-11-12T01:40:49.265Z,0
2017-11-12T01:41:50.060Z,0
2017-11-12T01:42:50.850Z,0
2017-11-12T01:43:51.570Z,0
2017-11-12T01:44:52.359Z,0
2017-11-12T01:45:53.090Z,0
2017-11-12T01:46:53.810Z,0
2017-11-12T01:47:54.623Z,0
2017-11-12T01:48:55.438Z,0
2017-11-12T01:49:56.121Z,0
2017-11-12T01:50:56.843Z,0
2017-11-12T01:51:57.653Z,0
2017-11-12T01:52:59.161Z,0
2017-11-12T01:53:59.920Z,0
2017-11-12T01:55:00.640Z,0
2017-11-12T01:56:01.360Z,0
2017-11-12T01:57:02.089Z,0
2017-11-12T01:58:03.170Z,0
2017-11-12T01:59:03.887Z,0
2017-11-12T02:00:04.721Z,0
2017-11-12T02:01:05.434Z,0
2017-11-12T02:02:06.245Z,0
2017-11-12T02:03:07.097Z,0
2017-11-12T02:04:07.853Z,0
2017-11-12T02:05:08.670Z,0
2017-11-12T02:06:09.394Z,0
2017-11-12T02:07:10.109Z,0
2017-11-12T02:08:10.946Z,0
2017-11-12T02:09:11.762Z,0
2017-11-12T02:10:12.497Z,0
2017-11-12T02:11:13.308Z,0
2017-11-12T02:12:14.023Z,0
2017-11-12T02:13:14.841Z,0
2017-11-12T02:14:15.650Z,0
2017-11-12T02:15:16.378Z,0
2017-11-12T02:16:17.094Z,0
2017-11-12T02:17:17.824Z,0
2017-11-12T02:18:18.905Z,0
2017-11-12T02:19:19.626Z,0
2017-11-12T02:20:20.376Z,0
2017-11-12T02:21:21.093Z,0
2017-11-12T02:22:21.930Z,0
2017-11-12T02:23:23.068Z,0
2017-11-12T02:24:23.804Z,0
2017-11-12T02:25:25.055Z,0
2017-11-12T02:26:26.043Z,0
2017-11-12T02:27:26.741Z,0
2017-11-12T02:28:27.546Z,0
2017-11-12T02:29:28.271Z,0
2017-11-12T02:30:29.028Z,0
2017-11-12T02:31:29.889Z,0
2017-11-12T02:32:30.934Z,0
2017-11-12T02:33:32.754Z,0
2017-11-12T02:34:33.663Z,0
2017-11-12T02:35:34.721Z,0
2017-11-12T02:36:35.431Z,0
2017-11-12T02:37:37.303Z,0
2017-11-12T02:38:38.198Z,0
2017-11-12T02:39:40.104Z,0
2017-11-12T02:40:42.092Z,0
2017-11-12T02:41:44.210Z,0
2017-11-12T02:42:46.067Z,0
2017-11-12T02:43:47.320Z,0
2017-11-12T02:44:48.126Z,0
2017-11-12T02:45:49.113Z,0
2017-11-12T02:46:49.892Z,0
2017-11-12T02:47:50.663Z,0
2017-11-12T02:48:51.472Z,0
2017-11-12T02:49:52.308Z,0
2017-11-12T02:50:53.050Z,0
2017-11-12T02:51:53.774Z,0
2017-11-12T02:52:54.501Z,0
2017-11-12T02:53:55.243Z,0
2017-11-12T02:54:55.952Z,0
2017-11-12T02:55:56.808Z,0
2017-11-12T02:56:57.557Z,0
2017-11-12T02:57:58.261Z,0
2017-11-12T02:58:59.053Z,0
2017-11-12T02:59:59.831Z,0
2017-11-12T03:01:00.848Z,0
2017-11-12T03:02:01.599Z,0
2017-11-12T03:03:02.290Z,0
2017-11-12T03:04:03.018Z,0
2017-11-12T03:05:03.830Z,0
2017-11-12T03:06:04.558Z,0
2017-11-12T03:08:19.633Z,0
2017-11-12T03:09:20.360Z,0
2017-11-12T03:10:21.082Z,0
2017-11-12T03:11:21.836Z,0
2017-11-12T03:12:22.648Z,0
2017-11-12T03:13:23.459Z,0
2017-11-12T03:14:24.179Z,0
2017-11-12T03:15:24.927Z,0
2017-11-12T03:16:25.662Z,0
2017-11-12T03:17:26.480Z,0
2017-11-12T03:18:27.300Z,0
2017-11-12T03:19:28.102Z,0
2017-11-12T03:20:28.821Z,0
2017-11-12T03:21:29.543Z,0
2017-11-12T03:22:30.349Z,0
2017-11-12T03:23:31.462Z,0
2017-11-12T03:24:32.181Z,0
2017-11-12T03:25:32.898Z,0
2017-11-12T03:26:33.631Z,0
2017-11-12T03:27:34.351Z,0
2017-11-12T03:28:35.070Z,0
2017-11-12T03:29:35.790Z,0
2017-11-12T03:30:36.585Z,0
2017-11-12T03:31:37.314Z,0
2017-11-12T03:32:38.432Z,0
2017-11-12T03:33:39.218Z,0
2017-11-12T03:34:39.933Z,0
2017-11-12T03:35:40.710Z,0
2017-11-12T03:36:41.422Z,0
2017-11-12T03:37:42.188Z,0
2017-11-12T03:38:42.892Z,0
2017-11-12T03:39:43.610Z,0
2017-11-12T03:40:44.342Z,0
2017-11-12T03:41:45.061Z,0
2017-11-12T03:42:45.794Z,0
2017-11-12T03:43:46.582Z,0
2017-11-12T03:44:47.280Z,0
2017-11-12T03:45:48.001Z,0
2017-11-12T03:46:48.721Z,0
2017-11-12T03:47:49.502Z,0
2017-11-12T03:48:50.209Z,0
2017-11-12T03:49:50.931Z,0
2017-11-12T03:50:51.658Z,0
2017-11-12T03:51:52.382Z,0
2017-11-12T03:52:53.105Z,0
2017-11-12T03:53:53.842Z,0
2017-11-12T03:54:54.610Z,0
2017-11-12T03:55:55.412Z,0
2017-11-12T03:56:56.123Z,0
2017-11-12T03:57:56.849Z,0
2017-11-12T03:58:57.570Z,0
2017-11-12T03:59:58.405Z,0
2017-11-12T04:00:59.176Z,0
2017-11-12T04:01:59.898Z,0
2017-11-12T04:03:00.628Z,0
2017-11-12T04:04:01.389Z,0
2017-11-12T04:05:02.170Z,0
2017-11-12T04:06:02.897Z,0
2017-11-12T04:07:03.676Z,0
2017-11-12T04:08:04.388Z,0
2017-11-12T04:09:05.118Z,0
2017-11-12T04:10:05.958Z,0
2017-11-12T04:11:06.671Z,0
2017-11-12T04:12:07.466Z,0
2017-11-12T04:13:08.184Z,0
2017-11-12T04:14:08.903Z,0
2017-11-12T04:15:09.733Z,0
2017-11-12T04:16:10.454Z,0
2017-11-12T04:17:11.238Z,0
2017-11-12T04:18:11.973Z,0
2017-11-12T04:19:12.750Z,0
2017-11-12T04:20:13.895Z,0
2017-11-12T04:21:14.685Z,0
2017-11-12T04:22:15.479Z,0
2017-11-12T04:23:16.208Z,0
2017-11-12T04:24:16.940Z,0
2017-11-12T04:25:18.076Z,0
2017-11-12T04:26:18.869Z,0
2017-11-12T04:27:19.592Z,0
2017-11-12T04:28:20.314Z,0
2017-11-12T04:29:21.051Z,0
2017-11-12T04:30:22.472Z,0
2017-11-12T04:31:23.259Z,0
2017-11-12T04:32:23.972Z,0
2017-11-12T04:33:24.688Z,0
2017-11-12T04:34:25.409Z,0
2017-11-12T04:35:26.139Z,0
2017-11-12T04:36:26.920Z,0
2017-11-12T04:37:27.677Z,0
2017-11-12T04:38:28.404Z,0
2017-11-12T04:39:29.205Z,0
2017-11-12T04:40:29.906Z,0
2017-11-12T04:41:30.627Z,0
2017-11-12T04:42:31.455Z,0
2017-11-12T04:43:32.239Z,0
2017-11-12T04:44:32.963Z,0
2017-11-12T04:45:33.682Z,0
2017-11-12T04:46:34.408Z,0
2017-11-12T04:47:35.129Z,0
2017-11-12T04:48:35.912Z,0
2017-11-12T04:49:36.680Z,0
2017-11-12T04:50:37.423Z,0
2017-11-12T04:51:38.149Z,0
2017-11-12T04:52:38.880Z,0
2017-11-12T04:53:39.586Z,0
2017-11-12T04:54:40.293Z,0
2017-11-12T04:55:41.009Z,0
2017-11-12T04:56:41.739Z,0
2017-11-12T04:57:42.544Z,0
2017-11-12T04:58:43.453Z,0
2017-11-12T04:59:44.177Z,0
2017-11-12T05:00:44.958Z,0
2017-11-12T05:01:45.732Z,0
2017-11-12T05:02:46.508Z,0
2017-11-12T05:03:47.291Z,0
2017-11-12T05:04:48.004Z,0
2017-11-12T05:05:48.734Z,0
2017-11-12T05:06:49.624Z,0
2017-11-12T05:07:50.338Z,0
2017-11-12T05:08:51.085Z,0
2017-11-12T05:09:51.789Z,0
2017-11-12T05:10:52.503Z,0
2017-11-12T05:11:53.277Z,0
2017-11-12T05:12:53.992Z,0
2017-11-12T05:13:54.705Z,0
2017-11-12T05:14:55.433Z,0
2017-11-12T05:15:56.250Z,0
2017-11-12T05:16:57.015Z,0
2017-11-12T05:17:57.841Z,0
2017-11-12T05:18:58.622Z,0
2017-11-12T05:19:59.393Z,0
2017-11-12T05:21:00.120Z,0
2017-11-12T05:22:00.943Z,0
2017-11-12T05:23:01.673Z,0
2017-11-12T05:24:02.398Z,0
2017-11-12T05:25:03.172Z,0
2017-11-12T05:26:03.883Z,0
2017-11-12T05:27:04.889Z,0
2017-11-12T05:28:05.604Z,0
2017-11-12T05:29:06.372Z,0
2017-11-12T05:30:07.102Z,0
2017-11-12T05:31:07.822Z,0
2017-11-12T05:32:08.550Z,0
2017-11-12T05:33:09.272Z,0
2017-11-12T05:34:10.059Z,0
2017-11-12T05:35:10.899Z,0
2017-11-12T05:36:11.646Z,0
2017-11-12T05:37:12.420Z,0
2017-11-12T05:38:13.183Z,0
2017-11-12T05:39:13.982Z,0
2017-11-12T05:40:14.704Z,0
2017-11-12T05:41:15.483Z,0
2017-11-12T05:42:16.199Z,0
2017-11-12T05:43:16.973Z,0
2017-11-12T05:44:17.738Z,0
2017-11-12T05:45:18.521Z,0
2017-11-12T05:46:19.310Z,0
2017-11-12T05:47:20.040Z,0
2017-11-12T05:48:21.212Z,0
2017-11-12T05:49:21.925Z,0
2017-11-12T05:50:22.699Z,0
2017-11-12T05:51:23.435Z,0
2017-11-12T05:52:24.193Z,0
2017-11-12T05:53:24.930Z,0
2017-11-12T05:54:25.649Z,0
2017-11-12T05:55:26.372Z,0
2017-11-12T05:56:27.103Z,0
2017-11-12T05:57:27.841Z,0
2017-11-12T05:58:28.665Z,0
2017-11-12T05:59:29.385Z,0
2017-11-12T06:00:30.173Z,0
2017-11-12T06:01:30.905Z,0
2017-11-12T06:02:31.633Z,0
2017-11-12T06:03:32.439Z,0
2017-11-12T06:04:33.172Z,0
2017-11-12T06:05:33.897Z,0
2017-11-12T06:06:34.708Z,0
2017-11-12T06:07:35.469Z,0
2017-11-12T06:08:36.229Z,0
2017-11-12T06:09:36.944Z,0
2017-11-12T06:10:37.673Z,0
2017-11-12T06:11:38.466Z,0
2017-11-12T06:12:39.256Z,0
2017-11-12T06:13:40.389Z,0
2017-11-12T06:14:41.102Z,0
2017-11-12T06:15:41.864Z,0
2017-11-12T06:16:42.667Z,0
2017-11-12T06:17:43.449Z,0
2017-11-12T06:18:44.229Z,0
2017-11-12T06:19:44.949Z,0
2017-11-12T06:20:45.681Z,0
2017-11-12T06:21:46.483Z,0
2017-11-12T06:22:47.239Z,0
2017-11-12T06:23:48.013Z,0
2017-11-12T06:24:48.738Z,0
2017-11-12T06:25:49.463Z,0
2017-11-12T06:26:50.198Z,0
2017-11-12T06:27:50.974Z,0
2017-11-12T06:28:51.801Z,0
2017-11-12T06:29:52.553Z,0
2017-11-12T06:30:53.331Z,0
2017-11-12T06:31:54.083Z,0
2017-11-12T06:32:54.820Z,0
2017-11-12T06:33:55.623Z,0
2017-11-12T06:34:56.341Z,0
2017-11-12T06:35:57.169Z,0
2017-11-12T06:36:57.942Z,5
2017-11-12T06:37:58.710Z,5
2017-11-12T06:38:59.493Z,5
2017-11-12T06:40:00.215Z,5
2017-11-12T06:41:00.943Z,5
2017-11-12T06:42:01.663Z,5
2017-11-12T06:43:02.394Z,5
2017-11-12T06:44:03.232Z,5
2017-11-12T06:45:03.964Z,5
2017-11-12T06:46:04.671Z,11
2017-11-12T06:47:05.400Z,11
2017-11-12T06:48:06.194Z,11
2017-11-12T06:49:06.993Z,11
2017-11-12T06:50:07.789Z,16
2017-11-12T06:51:08.556Z,16
2017-11-12T06:52:09.370Z,16
2017-11-12T06:53:10.095Z,22
2017-11-12T06:54:10.848Z,22
2017-11-12T06:55:11.649Z,22
2017-11-12T06:56:12.453Z,22
2017-11-12T06:57:13.228Z,28
2017-11-12T06:58:14.024Z,28
2017-11-12T06:59:14.817Z,28
2017-11-12T07:00:15.550Z,28
2017-11-12T07:01:16.288Z,33
2017-11-12T07:02:17.430Z,33
2017-11-12T07:03:18.157Z,33
2017-11-12T07:04:18.881Z,39
2017-11-12T07:05:19.676Z,39
2017-11-12T07:06:20.410Z,39
2017-11-12T07:07:21.198Z,39
2017-11-12T07:08:21.943Z,39
2017-11-12T07:09:22.667Z,39
2017-11-12T07:10:23.475Z,39
2017-11-12T07:11:24.289Z,39
2017-11-12T07:12:25.059Z,39
2017-11-12T07:13:25.790Z,39
2017-11-12T07:14:26.543Z,39
2017-11-12T07:15:27.353Z,33
2017-11-12T07:16:28.128Z,39
2017-11-12T07:17:29.161Z,39
2017-11-12T07:18:29.931Z,39
2017-11-12T07:19:30.652Z,45
2017-11-12T07:20:31.383Z,45
2017-11-12T07:21:32.193Z,50
2017-11-12T07:22:33.390Z,50
2017-11-12T07:23:34.137Z,50
2017-11-12T07:24:34.849Z,45
2017-11-12T07:25:35.570Z,45
2017-11-12T07:26:36.314Z,50
2017-11-12T07:27:37.042Z,56
2017-11-12T07:28:37.809Z,61
2017-11-12T07:29:38.561Z,61
2017-11-12T07:30:39.280Z,67
2017-11-12T07:31:40.021Z,73
2017-11-12T07:32:40.800Z,73
2017-11-12T07:33:41.942Z,73
2017-11-12T07:34:42.671Z,78
2017-11-12T07:35:43.479Z,84
2017-11-12T07:36:44.213Z,90
2017-11-12T07:37:44.941Z,95
2017-11-12T07:38:46.140Z,101
2017-11-12T07:39:46.928Z,95
2017-11-12T07:40:47.661Z,95
2017-11-12T07:41:48.394Z,95
2017-11-12T07:42:49.110Z,95
2017-11-12T07:43:49.949Z,95
2017-11-12T07:44:50.691Z,95
2017-11-12T07:45:51.495Z,101
2017-11-12T07:46:52.274Z,106
2017-11-12T07:47:52.997Z,112
2017-11-12T07:48:53.782Z,118
2017-11-12T07:49:54.588Z,123
2017-11-12T07:50:55.321Z,129
2017-11-12T07:51:56.046Z,135
2017-11-12T07:52:56.862Z,140
2017-11-12T07:53:57.695Z,146
2017-11-12T07:54:58.483Z,151
2017-11-12T07:55:59.215Z,151
2017-11-12T07:56:59.946Z,151
2017-11-12T07:58:00.683Z,151
2017-11-12T07:59:01.471Z,151
2017-11-12T08:00:02.240Z,157
2017-11-12T08:01:02.981Z,157
2017-11-12T08:02:03.708Z,163
2017-11-12T08:03:04.443Z,163
2017-11-12T08:04:05.234Z,168
2017-11-12T08:05:05.962Z,168
2017-11-12T08:06:06.727Z,174
2017-11-12T08:07:07.485Z,174
2017-11-12T08:08:08.223Z,180
2017-11-12T08:09:09.059Z,185
2017-11-12T08:10:09.805Z,196
2017-11-12T08:11:10.603Z,213
2017-11-12T08:12:11.372Z,225
2017-11-12T08:13:12.249Z,241
2017-11-12T08:14:13.394Z,253
2017-11-12T08:15:14.174Z,258
2017-11-12T08:16:14.973Z,264
2017-11-12T08:17:15.703Z,258
2017-11-12T08:18:16.512Z,247
2017-11-12T08:19:17.592Z,241
2017-11-12T08:20:18.401Z,230
2017-11-12T08:21:19.121Z,219
2017-11-12T08:22:19.923Z,219
2017-11-12T08:23:20.652Z,219
2017-11-12T08:24:21.425Z,219
2017-11-12T08:25:22.200Z,225
2017-11-12T08:26:22.967Z,230
2017-11-12T08:27:23.698Z,241
2017-11-12T08:28:24.482Z,247
2017-11-12T08:29:25.200Z,247
2017-11-12T08:30:26.301Z,258
2017-11-12T08:31:27.032Z,253
2017-11-12T08:32:27.844Z,247
2017-11-12T08:33:28.581Z,247
2017-11-12T08:34:29.298Z,236
2017-11-12T08:35:30.097Z,230
2017-11-12T08:36:30.883Z,219
2017-11-12T08:37:31.966Z,208
2017-11-12T08:38:32.780Z,202
2017-11-12T08:39:33.514Z,191
2017-11-12T08:40:34.293Z,174
2017-11-12T08:41:35.023Z,168
2017-11-12T08:42:36.156Z,168
2017-11-12T08:43:36.900Z,168
2017-11-12T08:44:37.677Z,168
2017-11-12T08:45:38.512Z,174
2017-11-12T08:46:39.239Z,174
2017-11-12T08:47:40.425Z,180
2017-11-12T08:48:41.145Z,185
2017-11-12T08:49:41.868Z,185
2017-11-12T08:50:42.616Z,180
2017-11-12T08:51:43.386Z,180
2017-11-12T08:52:44.129Z,174
2017-11-12T08:53:44.921Z,168
2017-11-12T08:54:45.752Z,168
2017-11-12T08:55:46.480Z,174
2017-11-12T08:56:47.282Z,168
2017-11-12T08:57:48.012Z,168
2017-11-12T08:58:48.728Z,157
2017-11-12T08:59:49.751Z,146
2017-11-12T09:00:50.549Z,135
2017-11-12T09:01:51.285Z,123
2017-11-12T09:02:52.013Z,118
2017-11-12T09:03:52.734Z,112
2017-11-12T09:04:53.533Z,118
2017-11-12T09:05:54.268Z,118
2017-11-12T09:06:55.038Z,112
2017-11-12T09:07:55.764Z,112
2017-11-12T09:08:56.488Z,112
2017-11-12T09:09:57.368Z,118
2017-11-12T09:10:58.091Z,123
2017-11-12T09:11:58.902Z,135
2017-11-12T09:12:59.581Z,140
2017-11-12T09:14:00.323Z,146
2017-11-12T09:15:01.221Z,146
2017-11-12T09:16:02.025Z,135
2017-11-12T09:17:02.814Z,123
2017-11-12T09:18:03.627Z,118
2017-11-12T09:19:04.422Z,118
2017-11-12T09:20:05.566Z,123
2017-11-12T09:21:06.372Z,123
2017-11-12T09:22:07.094Z,112
2017-11-12T09:23:07.836Z,112
2017-11-12T09:24:08.600Z,129
2017-11-12T09:25:09.440Z,163
2017-11-12T09:26:10.174Z,185
2017-11-12T09:27:10.981Z,174
2017-11-12T09:28:11.712Z,146
2017-11-12T09:29:12.434Z,118
2017-11-12T09:30:13.573Z,118
2017-11-12T09:31:14.303Z,146
2017-11-12T09:32:15.066Z,157
2017-11-12T09:33:15.834Z,151
2017-11-12T09:34:16.597Z,151
2017-11-12T09:35:17.442Z,168
2017-11-12T09:36:18.190Z,196
2017-11-12T09:37:18.920Z,219
2017-11-12T09:38:19.676Z,230
2017-11-12T09:39:20.491Z,241
2017-11-12T09:40:21.319Z,236
2017-11-12T09:41:22.118Z,230
2017-11-12T09:42:22.834Z,230
2017-11-12T09:43:23.571Z,225
2017-11-12T09:44:24.408Z,236
2017-11-12T09:45:25.248Z,253
2017-11-12T09:46:25.982Z,253
2017-11-12T09:47:27.368Z,230
2017-11-12T09:48:28.112Z,202
2017-11-12T09:49:28.960Z,185
2017-11-12T09:50:30.004Z,180
2017-11-12T09:51:30.762Z,174
2017-11-12T09:52:31.493Z,163
2017-11-12T09:53:32.232Z,157
2017-11-12T09:54:32.965Z,135
2017-11-12T09:55:34.752Z,151
2017-11-12T09:56:35.427Z,157
2017-11-12T09:57:36.225Z,168
2017-11-12T09:58:37.026Z,174
2017-11-12T09:59:37.753Z,213
2017-11-12T10:00:38.471Z,236
2017-11-12T10:01:39.247Z,230
2017-11-12T10:02:39.982Z,230
2017-11-12T10:03:40.778Z,219
2017-11-12T10:04:41.521Z,225
2017-11-12T10:05:42.300Z,219
2017-11-12T10:06:43.123Z,191
2017-11-12T10:07:43.899Z,174
2017-11-12T10:08:44.883Z,180
2017-11-12T10:09:45.564Z,185
2017-11-12T10:10:46.297Z,225
2017-11-12T10:11:47.135Z,241
2017-11-12T10:12:47.859Z,241
2017-11-12T10:13:48.794Z,202
2017-11-12T10:14:49.535Z,191
2017-11-12T10:15:50.262Z,202
2017-11-12T10:16:50.982Z,185
2017-11-12T10:17:51.892Z,196
2017-11-12T10:18:52.561Z,219
2017-11-12T10:19:53.288Z,241
2017-11-12T10:20:54.025Z,264
2017-11-12T10:21:54.924Z,303
2017-11-12T10:22:55.667Z,326
2017-11-12T10:23:56.399Z,337
2017-11-12T10:24:58.112Z,348
2017-11-12T10:25:59.140Z,360
2017-11-12T10:26:59.973Z,365
2017-11-12T10:28:00.719Z,371
2017-11-12T10:29:01.481Z,365
2017-11-12T10:30:02.216Z,348
2017-11-12T10:31:02.960Z,365
2017-11-12T10:32:04.120Z,365
2017-11-12T10:33:04.779Z,376
2017-11-12T10:34:06.008Z,388
2017-11-12T10:35:06.990Z,388
2017-11-12T10:36:08.057Z,348
2017-11-12T10:37:08.938Z,298
2017-11-12T10:38:09.666Z,298
2017-11-12T10:39:10.459Z,320
2017-11-12T10:40:11.267Z,337
2017-11-12T10:41:12.226Z,382
2017-11-12T10:42:13.122Z,399
2017-11-12T10:43:13.957Z,410
2017-11-12T10:44:14.791Z,416
2017-11-12T10:45:16.788Z,421
2017-11-12T10:46:17.574Z,416
2017-11-12T10:47:18.415Z,393
2017-11-12T10:48:19.153Z,354
2017-11-12T10:49:19.939Z,315
2017-11-12T10:50:21.349Z,241
2017-11-12T10:51:22.017Z,202
2017-11-12T10:52:23.239Z,225
2017-11-12T10:53:24.284Z,236
2017-11-12T10:54:25.065Z,309
2017-11-12T10:55:25.875Z,461
2017-11-12T10:56:26.673Z,450
2017-11-12T10:57:27.457Z,421
2017-11-12T10:58:28.251Z,354
2017-11-12T10:59:29.034Z,270
2017-11-12T11:00:29.832Z,196
2017-11-12T11:01:30.556Z,146
2017-11-12T11:02:31.282Z,129
2017-11-12T11:03:32.063Z,123
2017-11-12T11:04:32.799Z,118
2017-11-12T11:05:33.528Z,112
2017-11-12T11:06:34.259Z,129
2017-11-12T11:07:35.047Z,146
2017-11-12T11:08:35.776Z,146
2017-11-12T11:09:36.564Z,146
2017-11-12T11:10:37.292Z,140
2017-11-12T11:11:38.031Z,146
2017-11-12T11:12:38.802Z,168
2017-11-12T11:13:39.599Z,185
2017-11-12T11:14:40.325Z,163
2017-11-12T11:15:41.099Z,146
2017-11-12T11:16:41.829Z,151
2017-11-12T11:17:42.676Z,151
2017-11-12T11:18:43.398Z,174
2017-11-12T11:19:44.133Z,191
2017-11-12T11:20:44.918Z,168
2017-11-12T11:21:45.675Z,174
2017-11-12T11:22:46.764Z,185
2017-11-12T11:23:47.489Z,208
2017-11-12T11:24:48.212Z,258
2017-11-12T11:25:48.954Z,270
2017-11-12T11:26:49.663Z,264
2017-11-12T11:27:50.874Z,258
2017-11-12T11:28:51.591Z,247
2017-11-12T11:29:52.382Z,219
2017-11-12T11:30:53.112Z,213
2017-11-12T11:31:53.831Z,196
2017-11-12T11:32:54.550Z,168
2017-11-12T11:33:55.347Z,146
2017-11-12T11:34:56.095Z,146
2017-11-12T11:35:56.789Z,146
2017-11-12T11:36:57.520Z,146
2017-11-12T11:37:58.367Z,140
2017-11-12T11:38:59.144Z,140
2017-11-12T11:39:59.862Z,129
2017-11-12T11:41:00.613Z,118
2017-11-12T11:42:01.373Z,112
2017-11-12T11:43:02.529Z,106
2017-11-12T11:44:03.264Z,106
2017-11-12T11:45:04.070Z,112
2017-11-12T11:46:04.842Z,95
2017-11-12T11:47:05.819Z,90
2017-11-12T11:48:06.891Z,101
2017-11-12T11:49:07.647Z,101
2017-11-12T11:50:08.448Z,90
2017-11-12T11:51:09.139Z,84
2017-11-12T11:52:09.853Z,78
2017-11-12T11:53:10.591Z,67
2017-11-12T11:54:11.422Z,56
2017-11-12T11:55:12.256Z,50
2017-11-12T11:56:12.969Z,56
2017-11-12T11:57:13.697Z,61
2017-11-12T11:58:14.443Z,67
2017-11-12T11:59:15.289Z,73
2017-11-12T12:00:16.018Z,73
2017-11-12T12:01:16.738Z,84
2017-11-12T12:02:17.538Z,78
2017-11-12T12:03:18.271Z,101
2017-11-12T12:04:19.049Z,106
2017-11-12T12:05:19.782Z,112
2017-11-12T12:06:20.522Z,118
2017-11-12T12:07:21.401Z,123
2017-11-12T12:08:22.136Z,135
2017-11-12T12:09:22.858Z,146
2017-11-12T12:10:23.581Z,157
2017-11-12T12:11:24.409Z,174
2017-11-12T12:12:25.553Z,174
2017-11-12T12:13:26.408Z,146
2017-11-12T12:14:27.213Z,101
2017-11-12T12:15:27.932Z,84
2017-11-12T12:16:28.748Z,101
2017-11-12T12:17:29.576Z,112
2017-11-12T12:18:30.303Z,118
2017-11-12T12:19:31.029Z,129
2017-11-12T12:20:31.777Z,146
2017-11-12T12:21:32.503Z,151
2017-11-12T12:22:33.583Z,146
2017-11-12T12:23:34.421Z,146
2017-11-12T12:24:35.197Z,151
2017-11-12T12:25:37.104Z,157
2017-11-12T12:26:38.206Z,163
2017-11-12T12:27:39.354Z,151
2017-11-12T12:28:40.061Z,157
2017-11-12T12:29:40.794Z,180
2017-11-12T12:30:41.536Z,202
2017-11-12T12:31:42.399Z,202
2017-11-12T12:32:43.820Z,208
2017-11-12T12:33:44.568Z,208
2017-11-12T12:34:45.428Z,191
2017-11-12T12:35:46.152Z,163
2017-11-12T12:36:46.944Z,135
2017-11-12T12:37:47.749Z,129
2017-11-12T12:38:48.617Z,135
2017-11-12T12:39:49.381Z,151
2017-11-12T12:40:50.107Z,140
2017-11-12T12:41:50.879Z,135
2017-11-12T12:42:51.597Z,157
2017-11-12T12:43:52.340Z,168
2017-11-12T12:44:53.141Z,163
2017-11-12T12:45:53.870Z,157
2017-11-12T12:46:54.661Z,135
2017-11-12T12:47:55.516Z,135
2017-11-12T12:48:56.594Z,135
2017-11-12T12:49:57.264Z,118
2017-11-12T12:50:57.992Z,101
2017-11-12T12:51:58.721Z,84
2017-11-12T12:52:59.455Z,90
2017-11-12T12:54:00.265Z,95
2017-11-12T12:55:00.973Z,101
2017-11-12T12:56:01.779Z,101
2017-11-12T12:57:02.692Z,106
2017-11-12T12:58:03.435Z,123
2017-11-12T12:59:04.243Z,135
2017-11-12T13:00:05.048Z,151
2017-11-12T13:01:05.768Z,163
2017-11-12T13:02:06.855Z,163
2017-11-12T13:03:07.658Z,163
2017-11-12T13:04:08.414Z,146
2017-11-12T13:05:09.308Z,123
2017-11-12T13:06:10.083Z,101
2017-11-12T13:07:10.810Z,95
2017-11-12T13:08:11.552Z,95
2017-11-12T13:09:12.264Z,90
2017-11-12T13:10:12.993Z,90
2017-11-12T13:11:13.753Z,101
2017-11-12T13:12:14.548Z,112
2017-11-12T13:13:15.379Z,123
2017-11-12T13:14:16.115Z,146
2017-11-12T13:15:16.928Z,151
2017-11-12T13:16:17.669Z,129
2017-11-12T13:17:18.396Z,118
2017-11-12T13:18:19.583Z,135
2017-11-12T13:19:20.312Z,129
2017-11-12T13:20:21.080Z,129
2017-11-12T13:21:21.792Z,123
2017-11-12T13:22:22.638Z,123
2017-11-12T13:23:23.668Z,140
2017-11-12T13:24:24.404Z,135
2017-11-12T13:25:25.118Z,157
2017-11-12T13:26:25.850Z,157
2017-11-12T13:27:26.659Z,163
2017-11-12T13:28:27.857Z,185
2017-11-12T13:29:28.594Z,208
2017-11-12T13:30:29.276Z,219
2017-11-12T13:31:30.005Z,225
2017-11-12T13:32:30.792Z,236
2017-11-12T13:33:31.673Z,236
2017-11-12T13:34:32.402Z,236
2017-11-12T13:35:33.137Z,236
2017-11-12T13:36:33.947Z,225
2017-11-12T13:37:34.681Z,230
2017-11-12T13:38:35.501Z,230
2017-11-12T13:39:36.229Z,236
2017-11-12T13:40:36.960Z,236
2017-11-12T13:41:37.711Z,236
2017-11-12T13:42:38.447Z,236
2017-11-12T13:43:39.269Z,241
2017-11-12T13:44:39.995Z,258
2017-11-12T13:45:40.799Z,258
2017-11-12T13:46:41.522Z,253
2017-11-12T13:47:42.316Z,230
2017-11-12T13:48:43.083Z,202
2017-11-12T13:49:43.877Z,185
2017-11-12T13:50:44.594Z,174
2017-11-12T13:51:45.396Z,163
2017-11-12T13:52:46.203Z,157
2017-11-12T13:53:47.234Z,146
2017-11-12T13:54:48.043Z,140
2017-11-12T13:55:48.861Z,135
2017-11-12T13:56:49.640Z,135
2017-11-12T13:57:50.361Z,135
2017-11-12T13:58:51.134Z,129
2017-11-12T13:59:51.870Z,129
2017-11-12T14:00:52.652Z,140
2017-11-12T14:01:53.392Z,146
2017-11-12T14:02:54.179Z,151
2017-11-12T14:03:54.901Z,157
2017-11-12T14:04:55.692Z,157
2017-11-12T14:05:56.416Z,146
2017-11-12T14:06:57.188Z,135
2017-11-12T14:07:57.913Z,129
2017-11-12T14:08:58.717Z,135
2017-11-12T14:09:59.431Z,140
2017-11-12T14:11:00.603Z,140
2017-11-12T14:12:01.332Z,135
2017-11-12T14:13:02.063Z,129
2017-11-12T14:14:02.787Z,123
2017-11-12T14:15:03.560Z,112
2017-11-12T14:16:04.422Z,101
2017-11-12T14:17:05.159Z,84
2017-11-12T14:18:05.892Z,78
2017-11-12T14:19:06.693Z,73
2017-11-12T14:20:07.481Z,67
2017-11-12T14:21:08.310Z,61
2017-11-12T14:22:09.053Z,56
2017-11-12T14:23:09.775Z,50
2017-11-12T14:24:10.581Z,50
2017-11-12T14:25:11.360Z,61
2017-11-12T14:26:12.189Z,61
2017-11-12T14:27:12.925Z,78
2017-11-12T14:28:13.713Z,78
2017-11-12T14:29:14.434Z,78